createdAt,value
2022-08-23T00:01:23.868Z,98448.59
2022-08-23T00:04:03.064Z,98440.78
2022-08-23T00:06:44.779Z,98438.78
2022-08-23T00:09:21.237Z,98434.38
2022-08-23T00:12:02.458Z,98425.59
2022-08-23T00:14:42.020Z,98434.72
2022-08-23T00:17:34.335Z,98437.53
2022-08-23T00:27:23.298Z,98430.59
2022-08-23T00:30:05.366Z,98431.59
2022-08-23T00:32:41.916Z,98419.16
2022-08-23T00:35:26.908Z,98419.69
2022-08-23T00:38:31.999Z,98424.22
2022-08-23T00:41:03.317Z,98427.06
2022-08-23T00:56:24.298Z,98422.22
2022-08-23T00:59:07.337Z,98428.28
2022-08-23T01:01:41.351Z,98418.66
2022-08-23T01:04:19.406Z,98418.53
2022-08-23T01:07:02.646Z,98419.19
2022-08-23T01:20:43.295Z,98411.72
2022-08-23T01:23:39.374Z,98410.03
2022-08-23T01:26:22.116Z,98415.13
2022-08-23T01:29:04.352Z,98411.44
2022-08-23T01:31:38.251Z,98414.28
2022-08-23T01:34:16.371Z,98405.16
2022-08-23T01:36:50.171Z,98405.31
2022-08-23T01:49:40.351Z,98409.03
2022-08-23T01:52:20.330Z,98411.72
2022-08-23T01:54:54.248Z,98407.66
2022-08-23T01:57:28.388Z,98410.34
2022-08-23T02:00:08.709Z,98415.03
2022-08-23T02:02:49.331Z,98410.63
2022-08-23T02:16:02.246Z,98412.97
2022-08-23T02:18:37.946Z,98411.25
2022-08-23T02:21:12.348Z,98411.25
2022-08-23T02:23:47.138Z,98408.56
2022-08-23T02:26:21.358Z,98407.88
2022-08-23T02:43:08.341Z,98414.72
2022-08-23T02:45:49.421Z,98414.88
2022-08-23T02:48:23.561Z,98415.88
2022-08-23T02:51:07.445Z,98423.97
2022-08-23T02:53:42.828Z,98415.88
2022-08-23T02:56:21.662Z,98412.19
2022-08-23T03:09:34.334Z,98417.75
2022-08-23T03:12:08.298Z,98417.88
2022-08-23T03:14:47.335Z,98420.44
2022-08-23T03:17:22.630Z,98419.75
2022-08-23T03:19:58.129Z,98429.69
2022-08-23T03:22:32.577Z,98422.44
2022-08-23T03:34:35.270Z,98441.16
2022-08-23T03:37:18.017Z,98439.44
2022-08-23T03:39:51.583Z,98434.06
2022-08-23T03:42:30.804Z,98435.38
2022-08-23T03:45:06.273Z,98428.97
2022-08-23T03:47:41.277Z,98435.22
2022-08-23T04:01:20.261Z,98437.06
2022-08-23T04:03:53.858Z,98439.78
2022-08-23T04:06:27.239Z,98432.84
2022-08-23T04:09:01.008Z,98440.06
2022-08-23T04:11:35.225Z,98434.66
2022-08-23T04:14:09.233Z,98439.22
2022-08-23T04:16:45.213Z,98440.94
2022-08-23T04:29:56.213Z,98450.00
2022-08-23T04:32:33.000Z,98454.56
2022-08-23T04:35:16.210Z,98452.00
2022-08-23T04:37:49.645Z,98450.00
2022-08-23T04:40:25.223Z,98455.41
2022-08-23T04:42:59.098Z,98456.25
2022-08-23T04:55:50.208Z,98461.81
2022-08-23T04:58:30.216Z,98457.56
2022-08-23T05:01:08.139Z,98466.50
2022-08-23T05:03:49.213Z,98464.66
2022-08-23T05:06:24.976Z,98454.84
2022-08-23T05:22:44.210Z,98463.66
2022-08-23T05:25:20.356Z,98465.66
2022-08-23T05:27:56.053Z,98470.88
2022-08-23T05:30:29.784Z,98474.59
2022-08-23T05:33:04.207Z,98478.13
2022-08-23T05:35:40.680Z,98471.91
2022-08-23T05:38:20.212Z,98477.44
2022-08-23T05:48:34.205Z,98481.53
2022-08-23T05:51:18.242Z,98479.53
2022-08-23T05:53:59.904Z,98475.81
2022-08-23T05:56:43.233Z,98487.47
2022-08-23T05:59:18.843Z,98472.13
2022-08-23T06:01:52.248Z,98488.31
2022-08-23T06:15:05.219Z,98488.59
2022-08-23T06:17:39.244Z,98492.00
2022-08-23T06:20:15.250Z,98483.91
2022-08-23T06:23:00.132Z,98498.41
2022-08-23T06:25:43.228Z,98493.00
2022-08-23T06:28:19.551Z,98499.41
2022-08-23T06:41:51.198Z,98504.19
2022-08-23T06:44:35.233Z,98510.59
2022-08-23T06:47:26.672Z,98509.19
2022-08-23T06:50:08.798Z,98505.50
2022-08-23T06:53:00.868Z,98506.38
2022-08-23T06:56:03.205Z,98504.50
2022-08-23T07:09:27.250Z,98509.91
2022-08-23T07:12:02.376Z,98511.59
2022-08-23T07:14:38.206Z,98517.53
2022-08-23T07:17:13.556Z,98518.38
2022-08-23T07:19:48.284Z,98516.69
2022-08-23T07:22:22.292Z,98512.44
2022-08-23T07:35:22.230Z,98518.38
2022-08-23T07:38:05.248Z,98528.88
2022-08-23T07:40:39.470Z,98522.63
2022-08-23T07:43:15.260Z,98516.94
2022-08-23T07:45:49.709Z,98528.56
2022-08-23T07:48:50.222Z,98523.16
2022-08-23T07:51:25.269Z,98526.75
2022-08-23T08:04:20.157Z,98531.09
2022-08-23T08:07:18.189Z,98542.75
2022-08-23T08:09:58.342Z,98544.31
2022-08-23T08:12:38.240Z,98544.47
2022-08-23T08:15:18.931Z,98541.75
2022-08-23T08:18:06.226Z,98540.75
2022-08-23T08:28:55.161Z,98549.53
2022-08-23T08:31:36.247Z,98541.44
2022-08-23T08:34:11.106Z,98553.94
2022-08-23T08:36:48.040Z,98550.41
2022-08-23T08:39:28.841Z,98546.69
2022-08-23T08:42:37.203Z,98558.34
2022-08-23T08:55:57.098Z,98553.50
2022-08-23T08:58:43.499Z,98563.44
2022-08-23T09:01:27.263Z,98563.31
2022-08-23T09:04:02.848Z,98564.13
2022-08-23T09:06:50.320Z,98559.72
2022-08-23T09:09:51.658Z,98563.44
2022-08-23T09:12:48.258Z,98567.81
2022-08-23T09:22:43.218Z,98568.53
2022-08-23T09:25:32.279Z,98569.38
2022-08-23T09:28:17.279Z,98567.53
2022-08-23T09:31:02.257Z,98570.25
2022-08-23T09:33:43.143Z,98570.25
2022-08-23T09:36:45.259Z,98567.53
2022-08-23T09:49:57.258Z,98571.63
2022-08-23T09:52:37.518Z,98566.22
2022-08-23T09:55:36.278Z,98575.03
2022-08-23T09:58:26.318Z,98576.69
2022-08-23T10:01:23.003Z,98575.72
2022-08-23T10:18:19.241Z,98581.50
2022-08-23T10:21:11.278Z,98582.34
2022-08-23T10:24:08.199Z,98586.88
2022-08-23T10:27:14.279Z,98586.06
2022-08-23T10:29:51.319Z,98588.59
2022-08-23T10:33:02.259Z,98589.31
2022-08-23T10:43:16.247Z,98581.75
2022-08-23T10:46:00.451Z,98587.00
2022-08-23T10:48:48.022Z,98585.28
2022-08-23T10:51:37.258Z,98588.69
2022-08-23T10:54:18.978Z,98589.41
2022-08-23T10:56:59.279Z,98585.00
2022-08-23T11:10:24.279Z,98592.38
2022-08-23T11:13:03.979Z,98597.63
2022-08-23T11:15:50.261Z,98593.94
2022-08-23T11:18:41.658Z,98605.59
2022-08-23T11:21:55.279Z,98592.78
2022-08-23T11:37:35.219Z,98607.69
2022-08-23T11:40:18.547Z,98605.00
2022-08-23T11:43:03.378Z,98605.00
2022-08-23T11:45:52.328Z,98599.59
2022-08-23T11:48:43.413Z,98600.44
2022-08-23T11:51:38.379Z,98601.25
2022-08-23T12:07:51.479Z,98613.75
2022-08-23T12:11:09.299Z,98608.38
2022-08-23T12:13:55.599Z,98616.34
2022-08-23T12:16:49.619Z,98611.94
2022-08-23T12:30:12.298Z,98616.72
2022-08-23T12:33:00.486Z,98616.56
2022-08-23T12:35:53.298Z,98610.16
2022-08-23T12:38:41.599Z,98611.88
2022-08-23T12:41:29.278Z,98607.19
2022-08-23T12:58:07.364Z,98619.06
2022-08-23T13:00:58.367Z,98619.06
2022-08-23T13:03:38.758Z,98616.38
2022-08-23T13:06:28.258Z,98616.38
2022-08-23T13:09:13.203Z,98610.25
2022-08-23T13:11:54.258Z,98620.38
2022-08-23T13:25:28.792Z,98624.78
2022-08-23T13:28:23.238Z,98630.88
2022-08-23T13:31:10.371Z,98628.16
2022-08-23T13:33:52.938Z,98622.78
2022-08-23T13:36:33.278Z,98626.47
2022-08-23T13:50:00.278Z,98622.47
2022-08-23T13:52:51.037Z,98622.47
2022-08-23T13:55:37.999Z,98622.47
2022-08-23T13:58:16.740Z,98620.44
2022-08-23T14:00:58.883Z,98620.44
2022-08-23T14:03:33.999Z,98615.06
2022-08-23T14:16:43.264Z,98619.47
2022-08-23T14:22:16.859Z,98615.59
2022-08-23T14:24:51.278Z,98626.28
2022-08-23T14:27:24.959Z,98618.16
2022-08-23T14:29:59.278Z,98618.84
2022-08-23T14:32:35.439Z,98616.13
2022-08-23T14:45:25.239Z,98620.25
2022-08-23T14:48:07.301Z,98619.22
2022-08-23T14:50:41.348Z,98622.63
2022-08-23T14:53:16.278Z,98624.34
2022-08-23T14:55:57.569Z,98620.78
2022-08-23T15:14:42.838Z,98621.31
2022-08-23T15:17:17.318Z,98624.00
2022-08-23T15:19:50.758Z,98625.72
2022-08-23T15:22:32.278Z,98625.59
2022-08-23T15:39:10.219Z,98610.91
2022-08-23T15:41:50.238Z,98619.69
2022-08-23T15:44:23.998Z,98621.56
2022-08-23T15:46:58.218Z,98612.44
2022-08-23T15:49:36.482Z,98615.16
2022-08-23T15:52:17.326Z,98616.00
2022-08-23T16:05:29.279Z,98614.28
2022-08-23T16:08:03.659Z,98614.28
2022-08-23T16:10:37.261Z,98610.59
2022-08-23T16:13:10.938Z,98608.59
2022-08-23T16:15:46.238Z,98608.59
2022-08-23T16:18:19.998Z,98611.44
2022-08-23T16:31:10.280Z,98619.16
2022-08-23T16:33:51.258Z,98612.91
2022-08-23T16:36:30.174Z,98613.91
2022-08-23T16:39:10.279Z,98622.00
2022-08-23T16:41:43.968Z,98623.00
2022-08-23T16:57:59.298Z,98614.69
2022-08-23T17:00:33.168Z,98609.44
2022-08-23T17:03:07.438Z,98619.53
2022-08-23T17:05:40.878Z,98618.72
2022-08-23T17:08:14.260Z,98618.72
2022-08-23T17:10:48.018Z,98630.34
2022-08-23T17:13:24.259Z,98633.44
2022-08-23T17:23:54.218Z,98639.16
2022-08-23T17:26:34.238Z,98646.22
2022-08-23T17:29:09.734Z,98649.09
2022-08-23T17:31:44.316Z,98646.72
2022-08-23T17:34:17.738Z,98653.13
2022-08-23T17:36:55.314Z,98652.41
2022-08-23T17:50:42.279Z,98672.03
2022-08-23T17:53:16.978Z,98674.72
2022-08-23T17:55:51.280Z,98671.03
2022-08-23T17:58:25.058Z,98678.13
2022-08-23T18:01:01.314Z,98674.72
2022-08-23T18:03:34.901Z,98679.25
2022-08-23T18:06:16.996Z,98683.81
2022-08-23T18:19:28.259Z,98697.94
2022-08-23T18:22:03.922Z,98701.47
2022-08-23T18:24:39.259Z,98705.19
2022-08-23T18:27:12.718Z,98707.03
2022-08-23T18:29:47.412Z,98705.31
2022-08-23T18:32:26.237Z,98714.28
2022-08-23T18:45:17.318Z,98726.94
2022-08-23T18:47:59.279Z,98723.41
2022-08-23T18:50:32.858Z,98729.63
2022-08-23T18:53:06.218Z,98729.63
2022-08-23T18:55:40.152Z,98729.63
2022-08-23T18:58:14.280Z,98739.59
2022-08-23T19:11:27.400Z,98731.09
2022-08-23T19:14:01.290Z,98736.50
2022-08-23T19:16:37.333Z,98740.19
2022-08-23T19:19:10.818Z,98741.59
2022-08-23T19:21:45.280Z,98737.06
2022-08-23T19:24:19.078Z,98743.28
2022-08-23T19:26:56.499Z,98743.28
2022-08-23T19:40:08.351Z,98757.13
2022-08-23T19:42:43.660Z,98756.09
2022-08-23T19:45:19.259Z,98761.47
2022-08-23T19:47:53.321Z,98759.81
2022-08-23T19:50:28.297Z,98763.19
2022-08-23T19:53:02.001Z,98761.47
2022-08-23T20:05:54.239Z,98756.09
2022-08-23T20:08:34.258Z,98761.47
2022-08-23T20:11:07.778Z,98762.34
2022-08-23T20:13:41.678Z,98762.34
2022-08-23T20:16:16.135Z,98761.47
2022-08-23T20:32:00.270Z,98771.44
2022-08-23T20:34:34.500Z,98777.69
2022-08-23T20:37:17.240Z,98783.09
2022-08-23T20:39:50.753Z,98778.72
2022-08-23T20:42:25.238Z,98780.53
2022-08-23T20:44:59.369Z,98778.72
2022-08-23T20:47:36.128Z,98781.41
2022-08-23T20:57:57.226Z,98778.72
2022-08-23T21:00:37.302Z,98777.00
2022-08-23T21:03:19.559Z,98785.94
2022-08-23T21:06:09.238Z,98784.25
2022-08-23T21:08:43.461Z,98781.69
2022-08-23T21:11:17.301Z,98776.28
2022-08-23T21:13:50.834Z,98769.19
2022-08-23T21:26:41.224Z,98771.59
2022-08-23T21:29:21.258Z,98772.59
2022-08-23T21:31:54.638Z,98768.03
2022-08-23T21:34:29.538Z,98769.06
2022-08-23T21:37:03.959Z,98766.38
2022-08-23T21:53:19.239Z,98763.50
2022-08-23T21:55:53.383Z,98763.50
2022-08-23T21:58:28.258Z,98768.91
2022-08-23T22:01:01.980Z,98751.84
2022-08-23T22:03:35.239Z,98756.41
2022-08-23T22:06:17.465Z,98751.00
2022-08-23T22:18:51.219Z,98742.91
2022-08-23T22:21:35.504Z,98745.59
2022-08-23T22:24:12.520Z,98743.06
2022-08-23T22:26:53.309Z,98743.91
2022-08-23T22:29:26.960Z,98743.91
2022-08-23T22:32:00.260Z,98738.50
2022-08-23T22:45:13.300Z,98737.66
2022-08-23T22:47:46.884Z,98743.91
2022-08-23T22:50:20.279Z,98740.19
2022-08-23T22:52:53.999Z,98743.91
2022-08-23T22:55:27.279Z,98743.06
2022-08-23T22:58:00.890Z,98743.91
2022-08-23T23:14:18.252Z,98749.56
2022-08-23T23:16:51.811Z,98746.88
2022-08-23T23:19:27.232Z,98745.84
2022-08-23T23:22:00.734Z,98747.72
2022-08-23T23:24:38.368Z,98747.59
2022-08-23T23:27:11.873Z,98741.31
2022-08-23T23:40:02.251Z,98740.44
2022-08-23T23:42:42.793Z,98741.31
2022-08-23T23:45:17.933Z,98742.19
2022-08-23T23:47:52.253Z,98744.03
2022-08-23T23:50:26.673Z,98744.88
2022-08-23T23:53:01.294Z,98743.16
